sensor_id;sensor_type;location;lat;lon;timestamp;P1;durP1;ratioP1;P2;durP2;ratioP2
53391;SDS011;41667;51.922;8.850;2022-11-15T00:00:14;6.23;;;4.30;;
53391;SDS011;41667;51.922;8.850;2022-11-15T00:02:39;6.75;;;4.88;;
53391;SDS011;41667;51.922;8.850;2022-11-15T00:05:04;9.67;;;5.23;;
53391;SDS011;41667;51.922;8.850;2022-11-15T00:07:29;7.25;;;4.47;;
53391;SDS011;41667;51.922;8.850;2022-11-15T00:09:54;7.72;;;4.53;;
53391;SDS011;41667;51.922;8.850;2022-11-15T00:12:21;6.07;;;4.60;;
53391;SDS011;41667;51.922;8.850;2022-11-15T00:14:46;7.70;;;3.88;;
53391;SDS011;41667;51.922;8.850;2022-11-15T00:17:12;6.87;;;4.53;;
53391;SDS011;41667;51.922;8.850;2022-11-15T00:19:37;9.45;;;4.22;;
53391;SDS011;41667;51.922;8.850;2022-11-15T00:22:02;5.23;;;3.80;;
53391;SDS011;41667;51.922;8.850;2022-11-15T00:24:27;5.10;;;4.10;;
53391;SDS011;41667;51.922;8.850;2022-11-15T00:26:52;7.57;;;3.97;;
53391;SDS011;41667;51.922;8.850;2022-11-15T00:29:17;5.27;;;3.70;;
53391;SDS011;41667;51.922;8.850;2022-11-15T00:31:42;5.35;;;4.47;;
53391;SDS011;41667;51.922;8.850;2022-11-15T00:34:08;8.60;;;4.10;;
53391;SDS011;41667;51.922;8.850;2022-11-15T00:36:34;5.82;;;4.25;;
53391;SDS011;41667;51.922;8.850;2022-11-15T00:38:59;5.65;;;3.75;;
53391;SDS011;41667;51.922;8.850;2022-11-15T00:41:24;4.78;;;3.88;;
53391;SDS011;41667;51.922;8.850;2022-11-15T00:43:50;6.37;;;4.57;;
53391;SDS011;41667;51.922;8.850;2022-11-15T00:46:15;8.32;;;3.75;;
53391;SDS011;41667;51.922;8.850;2022-11-15T00:48:40;5.50;;;4.00;;
53391;SDS011;41667;51.922;8.850;2022-11-15T00:51:05;9.43;;;5.00;;
53391;SDS011;41667;51.922;8.850;2022-11-15T00:53:30;8.15;;;5.88;;
53391;SDS011;41667;51.922;8.850;2022-11-15T00:55:56;11.10;;;6.53;;
53391;SDS011;41667;51.922;8.850;2022-11-15T00:58:21;8.07;;;5.97;;
53391;SDS011;41667;51.922;8.850;2022-11-15T01:00:46;9.10;;;7.60;;
53391;SDS011;41667;51.922;8.850;2022-11-15T01:03:11;11.30;;;8.45;;
53391;SDS011;41667;51.922;8.850;2022-11-15T01:05:37;10.87;;;7.90;;
53391;SDS011;41667;51.922;8.850;2022-11-15T01:08:02;12.32;;;8.02;;
53391;SDS011;41667;51.922;8.850;2022-11-15T01:10:27;10.07;;;7.95;;
53391;SDS011;41667;51.922;8.850;2022-11-15T01:12:53;12.55;;;8.57;;
53391;SDS011;41667;51.922;8.850;2022-11-15T01:15:18;11.82;;;8.50;;
53391;SDS011;41667;51.922;8.850;2022-11-15T01:17:43;11.45;;;8.18;;
53391;SDS011;41667;51.922;8.850;2022-11-15T01:20:08;12.33;;;8.60;;
53391;SDS011;41667;51.922;8.850;2022-11-15T01:22:34;12.82;;;8.48;;
53391;SDS011;41667;51.922;8.850;2022-11-15T01:24:59;9.97;;;7.87;;
53391;SDS011;41667;51.922;8.850;2022-11-15T01:27:24;10.00;;;7.73;;
53391;SDS011;41667;51.922;8.850;2022-11-15T01:29:49;12.17;;;8.50;;
53391;SDS011;41667;51.922;8.850;2022-11-15T01:32:14;12.30;;;8.07;;
53391;SDS011;41667;51.922;8.850;2022-11-15T01:34:40;10.13;;;7.70;;
53391;SDS011;41667;51.922;8.850;2022-11-15T01:37:05;13.03;;;7.67;;
53391;SDS011;41667;51.922;8.850;2022-11-15T01:39:30;13.90;;;8.07;;
53391;SDS011;41667;51.922;8.850;2022-11-15T01:41:55;11.52;;;7.93;;
53391;SDS011;41667;51.922;8.850;2022-11-15T01:46:59;10.23;;;8.23;;
53391;SDS011;41667;51.922;8.850;2022-11-15T01:49:25;11.45;;;8.77;;
53391;SDS011;41667;51.922;8.850;2022-11-15T01:51:51;12.52;;;8.75;;
53391;SDS011;41667;51.922;8.850;2022-11-15T01:54:18;16.15;;;9.85;;
53391;SDS011;41667;51.922;8.850;2022-11-15T01:56:46;13.60;;;8.98;;
53391;SDS011;41667;51.922;8.850;2022-11-15T01:59:13;19.65;;;9.23;;
53391;SDS011;41667;51.922;8.850;2022-11-15T02:01:38;14.23;;;9.15;;
53391;SDS011;41667;51.922;8.850;2022-11-15T02:04:06;14.05;;;9.18;;
53391;SDS011;41667;51.922;8.850;2022-11-15T02:06:34;13.75;;;9.20;;
53391;SDS011;41667;51.922;8.850;2022-11-15T02:08:59;15.23;;;10.77;;
53391;SDS011;41667;51.922;8.850;2022-11-15T02:11:25;15.05;;;9.77;;
53391;SDS011;41667;51.922;8.850;2022-11-15T02:13:50;11.80;;;9.02;;
53391;SDS011;41667;51.922;8.850;2022-11-15T02:24:33;14.40;;;9.90;;
53391;SDS011;41667;51.922;8.850;2022-11-15T02:27:08;15.23;;;11.25;;
53391;SDS011;41667;51.922;8.850;2022-11-15T02:32:21;17.10;;;11.27;;
53391;SDS011;41667;51.922;8.850;2022-11-15T02:37:39;16.63;;;11.10;;
53391;SDS011;41667;51.922;8.850;2022-11-15T02:42:33;17.45;;;10.55;;
53391;SDS011;41667;51.922;8.850;2022-11-15T02:45:21;15.85;;;8.95;;
53391;SDS011;41667;51.922;8.850;2022-11-15T02:47:49;18.45;;;11.52;;
53391;SDS011;41667;51.922;8.850;2022-11-15T02:50:17;17.00;;;10.73;;
53391;SDS011;41667;51.922;8.850;2022-11-15T02:52:46;19.08;;;10.98;;
53391;SDS011;41667;51.922;8.850;2022-11-15T02:55:32;18.85;;;11.95;;
53391;SDS011;41667;51.922;8.850;2022-11-15T02:58:01;15.73;;;10.52;;
53391;SDS011;41667;51.922;8.850;2022-11-15T03:00:39;18.25;;;10.80;;
53391;SDS011;41667;51.922;8.850;2022-11-15T03:05:56;20.80;;;10.52;;
53391;SDS011;41667;51.922;8.850;2022-11-15T03:08:32;18.42;;;10.48;;
53391;SDS011;41667;51.922;8.850;2022-11-15T03:13:27;16.67;;;9.80;;
53391;SDS011;41667;51.922;8.850;2022-11-15T03:18:41;15.05;;;9.90;;
53391;SDS011;41667;51.922;8.850;2022-11-15T03:21:08;13.30;;;9.95;;
53391;SDS011;41667;51.922;8.850;2022-11-15T03:23:33;15.68;;;9.77;;
53391;SDS011;41667;51.922;8.850;2022-11-15T03:26:00;16.60;;;9.65;;
53391;SDS011;41667;51.922;8.850;2022-11-15T03:28:36;16.15;;;9.38;;
53391;SDS011;41667;51.922;8.850;2022-11-15T03:31:02;18.63;;;9.70;;
53391;SDS011;41667;51.922;8.850;2022-11-15T03:33:50;16.05;;;8.75;;
53391;SDS011;41667;51.922;8.850;2022-11-15T03:36:16;13.50;;;9.20;;
53391;SDS011;41667;51.922;8.850;2022-11-15T03:38:42;17.98;;;8.98;;
53391;SDS011;41667;51.922;8.850;2022-11-15T03:41:10;15.15;;;9.10;;
53391;SDS011;41667;51.922;8.850;2022-11-15T03:43:47;16.23;;;8.57;;
53391;SDS011;41667;51.922;8.850;2022-11-15T03:46:17;18.42;;;8.57;;
53391;SDS011;41667;51.922;8.850;2022-11-15T03:48:46;12.65;;;8.07;;
53391;SDS011;41667;51.922;8.850;2022-11-15T03:51:13;12.13;;;8.38;;
53391;SDS011;41667;51.922;8.850;2022-11-15T03:53:40;12.98;;;7.45;;
53391;SDS011;41667;51.922;8.850;2022-11-15T03:56:06;13.00;;;8.02;;
53391;SDS011;41667;51.922;8.850;2022-11-15T03:58:31;14.38;;;7.13;;
53391;SDS011;41667;51.922;8.850;2022-11-15T04:00:56;15.60;;;8.27;;
53391;SDS011;41667;51.922;8.850;2022-11-15T04:03:21;14.33;;;7.97;;
53391;SDS011;41667;51.922;8.850;2022-11-15T04:05:46;12.40;;;6.83;;
53391;SDS011;41667;51.922;8.850;2022-11-15T04:08:11;8.57;;;6.60;;
53391;SDS011;41667;51.922;8.850;2022-11-15T04:10:37;8.85;;;7.00;;
53391;SDS011;41667;51.922;8.850;2022-11-15T04:13:02;13.20;;;7.63;;
53391;SDS011;41667;51.922;8.850;2022-11-15T04:15:27;8.75;;;6.88;;
53391;SDS011;41667;51.922;8.850;2022-11-15T04:17:54;10.55;;;6.85;;
53391;SDS011;41667;51.922;8.850;2022-11-15T04:20:24;9.65;;;6.30;;
53391;SDS011;41667;51.922;8.850;2022-11-15T04:23:10;10.18;;;7.22;;
53391;SDS011;41667;51.922;8.850;2022-11-15T04:25:54;8.98;;;5.97;;
53391;SDS011;41667;51.922;8.850;2022-11-15T04:28:19;9.02;;;6.00;;
53391;SDS011;41667;51.922;8.850;2022-11-15T04:30:45;9.80;;;6.13;;
53391;SDS011;41667;51.922;8.850;2022-11-15T04:33:10;11.55;;;6.63;;
53391;SDS011;41667;51.922;8.850;2022-11-15T04:35:35;10.13;;;6.03;;
53391;SDS011;41667;51.922;8.850;2022-11-15T04:38:01;8.48;;;6.10;;
53391;SDS011;41667;51.922;8.850;2022-11-15T04:40:26;11.60;;;6.80;;
53391;SDS011;41667;51.922;8.850;2022-11-15T04:42:51;16.00;;;7.53;;
53391;SDS011;41667;51.922;8.850;2022-11-15T04:45:17;12.05;;;7.80;;
53391;SDS011;41667;51.922;8.850;2022-11-15T04:47:45;11.50;;;7.85;;
53391;SDS011;41667;51.922;8.850;2022-11-15T04:50:11;12.30;;;7.90;;
53391;SDS011;41667;51.922;8.850;2022-11-15T04:52:39;10.55;;;8.18;;
53391;SDS011;41667;51.922;8.850;2022-11-15T04:55:04;16.02;;;9.95;;
53391;SDS011;41667;51.922;8.850;2022-11-15T04:57:29;14.35;;;8.65;;
53391;SDS011;41667;51.922;8.850;2022-11-15T04:59:54;14.20;;;9.80;;
53391;SDS011;41667;51.922;8.850;2022-11-15T05:02:20;14.93;;;9.25;;
53391;SDS011;41667;51.922;8.850;2022-11-15T05:04:45;14.30;;;9.35;;
53391;SDS011;41667;51.922;8.850;2022-11-15T05:07:10;14.23;;;9.17;;
53391;SDS011;41667;51.922;8.850;2022-11-15T05:09:35;15.13;;;10.03;;
53391;SDS011;41667;51.922;8.850;2022-11-15T05:12:00;17.30;;;9.50;;
53391;SDS011;41667;51.922;8.850;2022-11-15T05:14:26;15.67;;;8.93;;
53391;SDS011;41667;51.922;8.850;2022-11-15T05:16:51;14.13;;;7.83;;
53391;SDS011;41667;51.922;8.850;2022-11-15T05:19:17;10.57;;;7.07;;
53391;SDS011;41667;51.922;8.850;2022-11-15T05:21:42;10.77;;;7.32;;
53391;SDS011;41667;51.922;8.850;2022-11-15T05:24:09;10.82;;;6.63;;
53391;SDS011;41667;51.922;8.850;2022-11-15T05:26:34;8.95;;;6.10;;
53391;SDS011;41667;51.922;8.850;2022-11-15T05:28:59;9.25;;;6.30;;
53391;SDS011;41667;51.922;8.850;2022-11-15T05:31:25;7.38;;;5.57;;
53391;SDS011;41667;51.922;8.850;2022-11-15T05:33:51;8.35;;;6.82;;
53391;SDS011;41667;51.922;8.850;2022-11-15T05:39:06;10.15;;;6.30;;
53391;SDS011;41667;51.922;8.850;2022-11-15T05:41:51;10.50;;;6.97;;
53391;SDS011;41667;51.922;8.850;2022-11-15T05:44:19;10.52;;;6.22;;
53391;SDS011;41667;51.922;8.850;2022-11-15T05:46:46;10.95;;;6.38;;
53391;SDS011;41667;51.922;8.850;2022-11-15T05:49:13;7.60;;;5.68;;
53391;SDS011;41667;51.922;8.850;2022-11-15T05:51:39;12.40;;;6.18;;
53391;SDS011;41667;51.922;8.850;2022-11-15T05:54:05;9.23;;;6.45;;
53391;SDS011;41667;51.922;8.850;2022-11-15T05:56:30;8.00;;;6.03;;
53391;SDS011;41667;51.922;8.850;2022-11-15T05:58:55;7.70;;;5.50;;
53391;SDS011;41667;51.922;8.850;2022-11-15T06:01:22;7.18;;;5.00;;
53391;SDS011;41667;51.922;8.850;2022-11-15T06:03:47;9.35;;;6.38;;
53391;SDS011;41667;51.922;8.850;2022-11-15T06:06:12;10.33;;;6.23;;
53391;SDS011;41667;51.922;8.850;2022-11-15T06:08:37;13.23;;;6.33;;
53391;SDS011;41667;51.922;8.850;2022-11-15T06:11:05;9.20;;;5.23;;
53391;SDS011;41667;51.922;8.850;2022-11-15T06:13:31;8.02;;;5.68;;
53391;SDS011;41667;51.922;8.850;2022-11-15T06:15:57;7.78;;;5.18;;
53391;SDS011;41667;51.922;8.850;2022-11-15T06:18:22;6.30;;;5.35;;
53391;SDS011;41667;51.922;8.850;2022-11-15T06:20:47;11.03;;;5.77;;
53391;SDS011;41667;51.922;8.850;2022-11-15T06:23:12;9.88;;;5.75;;
53391;SDS011;41667;51.922;8.850;2022-11-15T06:25:38;8.23;;;5.10;;
53391;SDS011;41667;51.922;8.850;2022-11-15T06:28:03;8.15;;;5.95;;
53391;SDS011;41667;51.922;8.850;2022-11-15T06:30:29;7.93;;;4.50;;
53391;SDS011;41667;51.922;8.850;2022-11-15T06:33:00;6.45;;;4.72;;
53391;SDS011;41667;51.922;8.850;2022-11-15T06:35:26;4.90;;;3.63;;
53391;SDS011;41667;51.922;8.850;2022-11-15T06:37:51;5.72;;;4.22;;
53391;SDS011;41667;51.922;8.850;2022-11-15T06:40:16;4.57;;;3.80;;
53391;SDS011;41667;51.922;8.850;2022-11-15T06:42:41;5.03;;;4.30;;
53391;SDS011;41667;51.922;8.850;2022-11-15T06:45:07;5.40;;;4.30;;
53391;SDS011;41667;51.922;8.850;2022-11-15T06:47:32;5.53;;;4.15;;
53391;SDS011;41667;51.922;8.850;2022-11-15T06:49:57;4.87;;;3.73;;
53391;SDS011;41667;51.922;8.850;2022-11-15T06:52:22;5.20;;;3.73;;
53391;SDS011;41667;51.922;8.850;2022-11-15T06:54:47;6.30;;;3.60;;
53391;SDS011;41667;51.922;8.850;2022-11-15T06:57:13;4.25;;;3.42;;
53391;SDS011;41667;51.922;8.850;2022-11-15T06:59:38;3.93;;;3.53;;
53391;SDS011;41667;51.922;8.850;2022-11-15T07:02:03;4.40;;;3.47;;
53391;SDS011;41667;51.922;8.850;2022-11-15T07:04:28;4.13;;;3.17;;
53391;SDS011;41667;51.922;8.850;2022-11-15T07:06:53;5.65;;;3.50;;
53391;SDS011;41667;51.922;8.850;2022-11-15T07:09:19;3.57;;;2.80;;
53391;SDS011;41667;51.922;8.850;2022-11-15T07:11:44;4.80;;;3.38;;
53391;SDS011;41667;51.922;8.850;2022-11-15T07:14:09;4.07;;;3.43;;
53391;SDS011;41667;51.922;8.850;2022-11-15T07:16:35;5.28;;;3.53;;
53391;SDS011;41667;51.922;8.850;2022-11-15T07:19:00;5.03;;;3.20;;
53391;SDS011;41667;51.922;8.850;2022-11-15T07:21:26;8.23;;;4.05;;
53391;SDS011;41667;51.922;8.850;2022-11-15T07:23:51;5.13;;;3.90;;
53391;SDS011;41667;51.922;8.850;2022-11-15T07:26:16;3.90;;;3.50;;
53391;SDS011;41667;51.922;8.850;2022-11-15T07:28:41;4.00;;;3.20;;
53391;SDS011;41667;51.922;8.850;2022-11-15T07:31:07;5.80;;;4.00;;
53391;SDS011;41667;51.922;8.850;2022-11-15T07:33:33;5.43;;;3.60;;
53391;SDS011;41667;51.922;8.850;2022-11-15T07:35:59;4.85;;;3.63;;
53391;SDS011;41667;51.922;8.850;2022-11-15T07:38:26;6.80;;;3.38;;
53391;SDS011;41667;51.922;8.850;2022-11-15T07:40:58;4.90;;;3.28;;
53391;SDS011;41667;51.922;8.850;2022-11-15T07:43:24;5.93;;;3.90;;
53391;SDS011;41667;51.922;8.850;2022-11-15T07:45:49;3.95;;;3.47;;
53391;SDS011;41667;51.922;8.850;2022-11-15T07:48:14;4.73;;;3.67;;
53391;SDS011;41667;51.922;8.850;2022-11-15T07:50:40;4.37;;;3.00;;
53391;SDS011;41667;51.922;8.850;2022-11-15T07:53:07;5.55;;;3.20;;
53391;SDS011;41667;51.922;8.850;2022-11-15T07:55:32;7.20;;;3.33;;
53391;SDS011;41667;51.922;8.850;2022-11-15T07:58:07;3.20;;;2.90;;
53391;SDS011;41667;51.922;8.850;2022-11-15T08:00:33;4.50;;;2.90;;
53391;SDS011;41667;51.922;8.850;2022-11-15T08:03:03;2.80;;;2.60;;
53391;SDS011;41667;51.922;8.850;2022-11-15T08:05:29;2.78;;;2.58;;
53391;SDS011;41667;51.922;8.850;2022-11-15T08:07:55;3.70;;;2.92;;
53391;SDS011;41667;51.922;8.850;2022-11-15T08:10:20;3.08;;;2.67;;
53391;SDS011;41667;51.922;8.850;2022-11-15T08:12:46;4.70;;;2.85;;
53391;SDS011;41667;51.922;8.850;2022-11-15T08:15:11;4.93;;;2.72;;
53391;SDS011;41667;51.922;8.850;2022-11-15T08:17:36;2.37;;;2.13;;
53391;SDS011;41667;51.922;8.850;2022-11-15T08:20:01;3.07;;;2.77;;
53391;SDS011;41667;51.922;8.850;2022-11-15T08:22:27;2.92;;;1.98;;
53391;SDS011;41667;51.922;8.850;2022-11-15T08:24:52;3.00;;;2.53;;
53391;SDS011;41667;51.922;8.850;2022-11-15T08:27:19;3.50;;;2.20;;
53391;SDS011;41667;51.922;8.850;2022-11-15T08:29:44;4.57;;;2.28;;
53391;SDS011;41667;51.922;8.850;2022-11-15T08:32:10;2.22;;;1.80;;
53391;SDS011;41667;51.922;8.850;2022-11-15T08:34:35;2.30;;;2.10;;
53391;SDS011;41667;51.922;8.850;2022-11-15T08:37:01;5.43;;;1.98;;
53391;SDS011;41667;51.922;8.850;2022-11-15T08:39:26;2.05;;;1.90;;
53391;SDS011;41667;51.922;8.850;2022-11-15T08:41:51;2.78;;;2.00;;
53391;SDS011;41667;51.922;8.850;2022-11-15T08:44:16;2.17;;;2.07;;
53391;SDS011;41667;51.922;8.850;2022-11-15T08:46:41;1.73;;;1.63;;
53391;SDS011;41667;51.922;8.850;2022-11-15T08:49:06;1.67;;;1.58;;
53391;SDS011;41667;51.922;8.850;2022-11-15T08:51:32;2.30;;;2.10;;
53391;SDS011;41667;51.922;8.850;2022-11-15T08:53:57;2.50;;;2.10;;
53391;SDS011;41667;51.922;8.850;2022-11-15T08:56:24;2.63;;;1.80;;
53391;SDS011;41667;51.922;8.850;2022-11-15T08:58:49;6.20;;;2.60;;
53391;SDS011;41667;51.922;8.850;2022-11-15T09:01:15;2.87;;;1.97;;
53391;SDS011;41667;51.922;8.850;2022-11-15T09:03:40;2.38;;;2.10;;
53391;SDS011;41667;51.922;8.850;2022-11-15T09:06:06;3.50;;;2.00;;
53391;SDS011;41667;51.922;8.850;2022-11-15T09:08:31;2.05;;;1.73;;
53391;SDS011;41667;51.922;8.850;2022-11-15T09:10:56;2.30;;;2.10;;
53391;SDS011;41667;51.922;8.850;2022-11-15T09:13:21;2.13;;;1.93;;
53391;SDS011;41667;51.922;8.850;2022-11-15T09:15:47;2.85;;;1.92;;
53391;SDS011;41667;51.922;8.850;2022-11-15T09:18:12;2.42;;;1.88;;
53391;SDS011;41667;51.922;8.850;2022-11-15T09:20:37;2.47;;;2.10;;
53391;SDS011;41667;51.922;8.850;2022-11-15T09:23:03;2.28;;;2.08;;
53391;SDS011;41667;51.922;8.850;2022-11-15T09:25:28;2.00;;;1.83;;
53391;SDS011;41667;51.922;8.850;2022-11-15T09:27:54;3.75;;;2.00;;
53391;SDS011;41667;51.922;8.850;2022-11-15T09:30:20;3.67;;;2.08;;
53391;SDS011;41667;51.922;8.850;2022-11-15T09:32:45;2.10;;;1.90;;
53391;SDS011;41667;51.922;8.850;2022-11-15T09:35:10;1.87;;;1.77;;
53391;SDS011;41667;51.922;8.850;2022-11-15T09:37:35;5.43;;;2.30;;
53391;SDS011;41667;51.922;8.850;2022-11-15T09:40:00;3.33;;;1.65;;
53391;SDS011;41667;51.922;8.850;2022-11-15T09:50:15;3.08;;;1.80;;
53391;SDS011;41667;51.922;8.850;2022-11-15T09:52:41;2.72;;;1.90;;
53391;SDS011;41667;51.922;8.850;2022-11-15T09:55:09;1.77;;;1.67;;
53391;SDS011;41667;51.922;8.850;2022-11-15T10:02:43;4.25;;;1.88;;
53391;SDS011;41667;51.922;8.850;2022-11-15T10:05:12;1.75;;;1.63;;
53391;SDS011;41667;51.922;8.850;2022-11-15T10:10:27;3.20;;;1.58;;
53391;SDS011;41667;51.922;8.850;2022-11-15T10:12:53;1.58;;;1.30;;
53391;SDS011;41667;51.922;8.850;2022-11-15T10:15:18;1.33;;;1.23;;
53391;SDS011;41667;51.922;8.850;2022-11-15T10:20:26;1.40;;;1.30;;
53391;SDS011;41667;51.922;8.850;2022-11-15T10:23:34;1.50;;;1.40;;
53391;SDS011;41667;51.922;8.850;2022-11-15T10:25:40;1.70;;;1.60;;
53391;SDS011;41667;51.922;8.850;2022-11-15T10:30:45;3.03;;;1.50;;
53391;SDS011;41667;51.922;8.850;2022-11-15T10:33:17;1.75;;;1.40;;
53391;SDS011;41667;51.922;8.850;2022-11-15T10:38:09;1.60;;;1.50;;
53391;SDS011;41667;51.922;8.850;2022-11-15T10:40:34;2.00;;;1.80;;
53391;SDS011;41667;51.922;8.850;2022-11-15T10:43:14;2.63;;;1.75;;
53391;SDS011;41667;51.922;8.850;2022-11-15T10:45:39;1.90;;;1.60;;
53391;SDS011;41667;51.922;8.850;2022-11-15T10:50:36;1.80;;;1.70;;
53391;SDS011;41667;51.922;8.850;2022-11-15T10:53:02;2.30;;;1.38;;
53391;SDS011;41667;51.922;8.850;2022-11-15T10:55:28;1.70;;;1.60;;
53391;SDS011;41667;51.922;8.850;2022-11-15T10:57:57;1.70;;;1.60;;
53391;SDS011;41667;51.922;8.850;2022-11-15T11:00:27;1.38;;;1.27;;
53391;SDS011;41667;51.922;8.850;2022-11-15T11:05:27;3.33;;;1.40;;
53391;SDS011;41667;51.922;8.850;2022-11-15T11:08:05;1.73;;;1.63;;
53391;SDS011;41667;51.922;8.850;2022-11-15T11:10:30;2.13;;;1.88;;
53391;SDS011;41667;51.922;8.850;2022-11-15T11:13:04;3.28;;;2.05;;
53391;SDS011;41667;51.922;8.850;2022-11-15T11:15:36;2.22;;;1.42;;
53391;SDS011;41667;51.922;8.850;2022-11-15T11:18:12;3.15;;;1.38;;
53391;SDS011;41667;51.922;8.850;2022-11-15T11:20:41;1.40;;;1.30;;
53391;SDS011;41667;51.922;8.850;2022-11-15T11:25:52;1.90;;;1.80;;
53391;SDS011;41667;51.922;8.850;2022-11-15T11:28:34;1.73;;;1.42;;
53391;SDS011;41667;51.922;8.850;2022-11-15T11:33:50;1.23;;;1.13;;
53391;SDS011;41667;51.922;8.850;2022-11-15T11:47:00;1.42;;;1.33;;
53391;SDS011;41667;51.922;8.850;2022-11-15T11:49:38;1.60;;;1.08;;
53391;SDS011;41667;51.922;8.850;2022-11-15T11:54:31;2.03;;;1.13;;
53391;SDS011;41667;51.922;8.850;2022-11-15T11:57:00;1.13;;;1.08;;
53391;SDS011;41667;51.922;8.850;2022-11-15T11:59:36;1.00;;;1.00;;
53391;SDS011;41667;51.922;8.850;2022-11-15T12:02:08;1.20;;;1.10;;
53391;SDS011;41667;51.922;8.850;2022-11-15T12:04:37;1.50;;;1.30;;
53391;SDS011;41667;51.922;8.850;2022-11-15T12:07:15;2.35;;;1.30;;
53391;SDS011;41667;51.922;8.850;2022-11-15T12:15:18;1.70;;;1.52;;
53391;SDS011;41667;51.922;8.850;2022-11-15T12:17:42;1.88;;;1.48;;
53391;SDS011;41667;51.922;8.850;2022-11-15T12:20:22;1.55;;;1.35;;
53391;SDS011;41667;51.922;8.850;2022-11-15T12:22:56;1.40;;;1.30;;
53391;SDS011;41667;51.922;8.850;2022-11-15T12:25:27;1.92;;;1.83;;
53391;SDS011;41667;51.922;8.850;2022-11-15T12:30:19;1.60;;;1.50;;
53391;SDS011;41667;51.922;8.850;2022-11-15T12:32:53;2.63;;;1.70;;
53391;SDS011;41667;51.922;8.850;2022-11-15T12:35:41;1.60;;;1.20;;
53391;SDS011;41667;51.922;8.850;2022-11-15T12:38:08;2.15;;;1.95;;
53391;SDS011;41667;51.922;8.850;2022-11-15T12:40:35;3.55;;;2.35;;
53391;SDS011;41667;51.922;8.850;2022-11-15T12:45:45;2.40;;;2.08;;
53391;SDS011;41667;51.922;8.850;2022-11-15T12:50:55;3.58;;;2.30;;
53391;SDS011;41667;51.922;8.850;2022-11-15T12:53:26;2.05;;;1.90;;
53391;SDS011;41667;51.922;8.850;2022-11-15T12:58:45;3.47;;;2.10;;
53391;SDS011;41667;51.922;8.850;2022-11-15T13:03:43;9.93;;;1.80;;
53391;SDS011;41667;51.922;8.850;2022-11-15T13:06:55;4.25;;;2.08;;
53391;SDS011;41667;51.922;8.850;2022-11-15T13:19:48;1.75;;;1.60;;
53391;SDS011;41667;51.922;8.850;2022-11-15T13:22:14;1.55;;;1.45;;
53391;SDS011;41667;51.922;8.850;2022-11-15T13:24:58;1.92;;;1.40;;
53391;SDS011;41667;51.922;8.850;2022-11-15T13:27:24;4.65;;;1.60;;
53391;SDS011;41667;51.922;8.850;2022-11-15T13:29:49;2.67;;;1.27;;
53391;SDS011;41667;51.922;8.850;2022-11-15T13:32:15;2.87;;;2.40;;
53391;SDS011;41667;51.922;8.850;2022-11-15T13:34:44;4.50;;;2.28;;
53391;SDS011;41667;51.922;8.850;2022-11-15T13:39:46;1.73;;;1.40;;
53391;SDS011;41667;51.922;8.850;2022-11-15T13:42:15;3.33;;;1.35;;
53391;SDS011;41667;51.922;8.850;2022-11-15T13:44:40;3.70;;;1.35;;
53391;SDS011;41667;51.922;8.850;2022-11-15T13:47:19;2.22;;;1.60;;
53391;SDS011;41667;51.922;8.850;2022-11-15T13:49:44;4.43;;;1.42;;
53391;SDS011;41667;51.922;8.850;2022-11-15T13:52:11;1.90;;;1.55;;
53391;SDS011;41667;51.922;8.850;2022-11-15T13:57:12;1.30;;;1.20;;
53391;SDS011;41667;51.922;8.850;2022-11-15T13:59:44;3.85;;;1.75;;
53391;SDS011;41667;51.922;8.850;2022-11-15T14:02:13;3.47;;;1.73;;
53391;SDS011;41667;51.922;8.850;2022-11-15T14:04:45;3.42;;;1.65;;
53391;SDS011;41667;51.922;8.850;2022-11-15T14:07:15;4.07;;;1.70;;
53391;SDS011;41667;51.922;8.850;2022-11-15T14:09:41;1.52;;;1.42;;
53391;SDS011;41667;51.922;8.850;2022-11-15T14:12:23;1.95;;;1.58;;
53391;SDS011;41667;51.922;8.850;2022-11-15T14:14:48;1.15;;;1.15;;
53391;SDS011;41667;51.922;8.850;2022-11-15T14:19:54;5.60;;;1.45;;
53391;SDS011;41667;51.922;8.850;2022-11-15T14:22:23;1.40;;;1.30;;
53391;SDS011;41667;51.922;8.850;2022-11-15T14:27:28;1.30;;;1.20;;
53391;SDS011;41667;51.922;8.850;2022-11-15T14:29:54;1.42;;;1.33;;
53391;SDS011;41667;51.922;8.850;2022-11-15T14:32:30;1.60;;;1.50;;
53391;SDS011;41667;51.922;8.850;2022-11-15T14:37:28;2.10;;;1.33;;
53391;SDS011;41667;51.922;8.850;2022-11-15T14:39:53;2.83;;;1.48;;
53391;SDS011;41667;51.922;8.850;2022-11-15T14:42:19;2.30;;;1.02;;
53391;SDS011;41667;51.922;8.850;2022-11-15T14:44:45;1.00;;;1.00;;
53391;SDS011;41667;51.922;8.850;2022-11-15T14:47:11;1.70;;;1.60;;
53391;SDS011;41667;51.922;8.850;2022-11-15T14:49:36;1.37;;;1.27;;
53391;SDS011;41667;51.922;8.850;2022-11-15T14:52:01;2.70;;;1.45;;
53391;SDS011;41667;51.922;8.850;2022-11-15T14:54:26;1.60;;;1.50;;
53391;SDS011;41667;51.922;8.850;2022-11-15T14:56:51;2.57;;;1.67;;
53391;SDS011;41667;51.922;8.850;2022-11-15T14:59:17;1.13;;;1.10;;
53391;SDS011;41667;51.922;8.850;2022-11-15T15:01:42;1.23;;;1.08;;
53391;SDS011;41667;51.922;8.850;2022-11-15T15:04:08;1.20;;;1.10;;
53391;SDS011;41667;51.922;8.850;2022-11-15T15:06:33;2.47;;;1.45;;
53391;SDS011;41667;51.922;8.850;2022-11-15T15:08:59;1.50;;;1.40;;
53391;SDS011;41667;51.922;8.850;2022-11-15T15:11:25;1.37;;;1.27;;
53391;SDS011;41667;51.922;8.850;2022-11-15T15:13:51;1.65;;;1.30;;
53391;SDS011;41667;51.922;8.850;2022-11-15T15:16:17;3.15;;;1.17;;
53391;SDS011;41667;51.922;8.850;2022-11-15T15:18:43;1.20;;;1.20;;
53391;SDS011;41667;51.922;8.850;2022-11-15T15:23:43;1.23;;;1.20;;
53391;SDS011;41667;51.922;8.850;2022-11-15T15:26:08;3.43;;;1.10;;
53391;SDS011;41667;51.922;8.850;2022-11-15T15:28:34;3.00;;;1.50;;
53391;SDS011;41667;51.922;8.850;2022-11-15T15:31:00;6.22;;;1.30;;
53391;SDS011;41667;51.922;8.850;2022-11-15T15:33:25;1.45;;;1.33;;
53391;SDS011;41667;51.922;8.850;2022-11-15T15:35:50;1.67;;;1.30;;
53391;SDS011;41667;51.922;8.850;2022-11-15T15:38:15;1.87;;;1.37;;
53391;SDS011;41667;51.922;8.850;2022-11-15T15:40:40;4.18;;;1.48;;
53391;SDS011;41667;51.922;8.850;2022-11-15T15:43:06;1.50;;;1.40;;
53391;SDS011;41667;51.922;8.850;2022-11-15T15:45:33;3.58;;;1.58;;
53391;SDS011;41667;51.922;8.850;2022-11-15T15:47:59;1.85;;;1.10;;
53391;SDS011;41667;51.922;8.850;2022-11-15T15:50:26;1.93;;;1.57;;
53391;SDS011;41667;51.922;8.850;2022-11-15T15:52:52;2.45;;;1.63;;
53391;SDS011;41667;51.922;8.850;2022-11-15T15:55:19;2.50;;;1.60;;
53391;SDS011;41667;51.922;8.850;2022-11-15T15:57:44;1.40;;;1.30;;
53391;SDS011;41667;51.922;8.850;2022-11-15T16:00:09;1.50;;;1.40;;
53391;SDS011;41667;51.922;8.850;2022-11-15T16:02:35;3.75;;;1.70;;
53391;SDS011;41667;51.922;8.850;2022-11-15T16:05:00;2.93;;;1.80;;
53391;SDS011;41667;51.922;8.850;2022-11-15T16:07:25;1.92;;;1.48;;
53391;SDS011;41667;51.922;8.850;2022-11-15T16:09:53;1.95;;;1.50;;
53391;SDS011;41667;51.922;8.850;2022-11-15T16:12:31;1.50;;;1.40;;
53391;SDS011;41667;51.922;8.850;2022-11-15T16:14:56;2.50;;;1.58;;
53391;SDS011;41667;51.922;8.850;2022-11-15T16:17:23;2.22;;;1.50;;
53391;SDS011;41667;51.922;8.850;2022-11-15T16:19:49;1.42;;;1.33;;
53391;SDS011;41667;51.922;8.850;2022-11-15T16:22:14;2.63;;;1.57;;
53391;SDS011;41667;51.922;8.850;2022-11-15T16:24:39;1.83;;;1.50;;
53391;SDS011;41667;51.922;8.850;2022-11-15T16:27:04;1.80;;;1.57;;
53391;SDS011;41667;51.922;8.850;2022-11-15T16:29:29;2.57;;;1.43;;
53391;SDS011;41667;51.922;8.850;2022-11-15T16:31:54;2.77;;;2.00;;
53391;SDS011;41667;51.922;8.850;2022-11-15T16:34:20;2.22;;;1.55;;
53391;SDS011;41667;51.922;8.850;2022-11-15T16:36:45;2.03;;;1.77;;
53391;SDS011;41667;51.922;8.850;2022-11-15T16:39:11;2.20;;;1.83;;
53391;SDS011;41667;51.922;8.850;2022-11-15T16:41:38;3.20;;;1.98;;
53391;SDS011;41667;51.922;8.850;2022-11-15T16:44:03;1.92;;;1.83;;